sensor_id;sensor_type;location;lat;lon;timestamp;P1;durP1;ratioP1;P2;durP2;ratioP2
60582;SDS011;46415;47.536;19.066;2022-11-14T00:00:47;31.80;;;6.55;;
60582;SDS011;46415;47.536;19.066;2022-11-14T00:04:09;11.02;;;7.47;;
60582;SDS011;46415;47.536;19.066;2022-11-14T00:07:30;28.23;;;7.18;;
60582;SDS011;46415;47.536;19.066;2022-11-14T00:10:52;15.68;;;7.40;;
60582;SDS011;46415;47.536;19.066;2022-11-14T00:14:13;13.02;;;6.75;;
60582;SDS011;46415;47.536;19.066;2022-11-14T00:17:34;22.73;;;7.05;;
60582;SDS011;46415;47.536;19.066;2022-11-14T00:20:55;8.90;;;6.95;;
60582;SDS011;46415;47.536;19.066;2022-11-14T00:24:16;16.20;;;8.05;;
60582;SDS011;46415;47.536;19.066;2022-11-14T00:27:37;13.30;;;7.97;;
60582;SDS011;46415;47.536;19.066;2022-11-14T00:30:58;22.37;;;7.72;;
60582;SDS011;46415;47.536;19.066;2022-11-14T00:34:19;32.38;;;6.45;;
60582;SDS011;46415;47.536;19.066;2022-11-14T00:37:40;15.57;;;6.72;;
60582;SDS011;46415;47.536;19.066;2022-11-14T00:41:01;10.55;;;7.30;;
60582;SDS011;46415;47.536;19.066;2022-11-14T00:44:21;27.77;;;6.70;;
60582;SDS011;46415;47.536;19.066;2022-11-14T00:47:43;13.20;;;7.65;;
60582;SDS011;46415;47.536;19.066;2022-11-14T00:51:06;19.85;;;6.10;;
60582;SDS011;46415;47.536;19.066;2022-11-14T00:54:27;12.05;;;6.18;;
60582;SDS011;46415;47.536;19.066;2022-11-14T00:57:48;18.02;;;8.15;;
60582;SDS011;46415;47.536;19.066;2022-11-14T01:01:09;9.77;;;5.93;;
60582;SDS011;46415;47.536;19.066;2022-11-14T01:04:30;9.20;;;6.25;;
60582;SDS011;46415;47.536;19.066;2022-11-14T01:07:51;18.02;;;6.75;;
60582;SDS011;46415;47.536;19.066;2022-11-14T01:11:14;10.52;;;7.07;;
60582;SDS011;46415;47.536;19.066;2022-11-14T01:14:38;8.68;;;5.95;;
60582;SDS011;46415;47.536;19.066;2022-11-14T01:17:59;24.77;;;7.22;;
60582;SDS011;46415;47.536;19.066;2022-11-14T01:21:20;15.40;;;9.02;;
60582;SDS011;46415;47.536;19.066;2022-11-14T01:24:42;12.23;;;6.35;;
60582;SDS011;46415;47.536;19.066;2022-11-14T01:28:06;11.80;;;6.80;;
60582;SDS011;46415;47.536;19.066;2022-11-14T01:31:28;8.75;;;6.57;;
60582;SDS011;46415;47.536;19.066;2022-11-14T01:34:49;17.70;;;6.68;;
60582;SDS011;46415;47.536;19.066;2022-11-14T01:38:11;26.23;;;6.95;;
60582;SDS011;46415;47.536;19.066;2022-11-14T01:41:34;11.38;;;7.05;;
60582;SDS011;46415;47.536;19.066;2022-11-14T01:44:55;13.43;;;7.62;;
60582;SDS011;46415;47.536;19.066;2022-11-14T01:51:50;34.10;;;8.07;;
60582;SDS011;46415;47.536;19.066;2022-11-14T01:55:19;9.73;;;7.57;;
60582;SDS011;46415;47.536;19.066;2022-11-14T01:58:40;7.22;;;6.45;;
60582;SDS011;46415;47.536;19.066;2022-11-14T02:02:07;13.70;;;7.68;;
60582;SDS011;46415;47.536;19.066;2022-11-14T02:05:33;9.50;;;5.55;;
60582;SDS011;46415;47.536;19.066;2022-11-14T02:08:55;9.82;;;7.03;;
60582;SDS011;46415;47.536;19.066;2022-11-14T02:12:19;9.13;;;6.50;;
60582;SDS011;46415;47.536;19.066;2022-11-14T02:15:41;16.58;;;7.12;;
60582;SDS011;46415;47.536;19.066;2022-11-14T02:19:01;27.58;;;7.00;;
60582;SDS011;46415;47.536;19.066;2022-11-14T02:22:24;6.95;;;4.95;;
60582;SDS011;46415;47.536;19.066;2022-11-14T02:25:45;8.38;;;6.62;;
60582;SDS011;46415;47.536;19.066;2022-11-14T02:29:07;10.73;;;6.65;;
60582;SDS011;46415;47.536;19.066;2022-11-14T02:32:29;7.68;;;6.00;;
60582;SDS011;46415;47.536;19.066;2022-11-14T02:36:10;10.40;;;6.03;;
60582;SDS011;46415;47.536;19.066;2022-11-14T02:39:31;11.75;;;7.22;;
60582;SDS011;46415;47.536;19.066;2022-11-14T02:42:52;9.35;;;6.00;;
60582;SDS011;46415;47.536;19.066;2022-11-14T02:46:13;27.27;;;6.28;;
60582;SDS011;46415;47.536;19.066;2022-11-14T02:49:34;21.92;;;5.68;;
60582;SDS011;46415;47.536;19.066;2022-11-14T02:52:55;8.80;;;6.30;;
60582;SDS011;46415;47.536;19.066;2022-11-14T02:56:16;9.93;;;5.72;;
60582;SDS011;46415;47.536;19.066;2022-11-14T02:59:37;8.82;;;5.60;;
60582;SDS011;46415;47.536;19.066;2022-11-14T03:02:58;9.00;;;4.57;;
60582;SDS011;46415;47.536;19.066;2022-11-14T03:06:19;7.40;;;5.30;;
60582;SDS011;46415;47.536;19.066;2022-11-14T03:09:40;7.20;;;5.50;;
60582;SDS011;46415;47.536;19.066;2022-11-14T03:13:02;15.48;;;5.50;;
60582;SDS011;46415;47.536;19.066;2022-11-14T03:16:23;9.30;;;6.75;;
60582;SDS011;46415;47.536;19.066;2022-11-14T03:19:44;7.30;;;4.00;;
60582;SDS011;46415;47.536;19.066;2022-11-14T03:23:05;6.95;;;4.70;;
60582;SDS011;46415;47.536;19.066;2022-11-14T03:26:26;4.82;;;4.20;;
60582;SDS011;46415;47.536;19.066;2022-11-14T03:29:47;21.83;;;5.18;;
60582;SDS011;46415;47.536;19.066;2022-11-14T03:33:09;5.62;;;4.72;;
60582;SDS011;46415;47.536;19.066;2022-11-14T03:36:30;8.35;;;5.72;;
60582;SDS011;46415;47.536;19.066;2022-11-14T03:39:51;6.68;;;5.25;;
60582;SDS011;46415;47.536;19.066;2022-11-14T03:43:11;22.27;;;5.62;;
60582;SDS011;46415;47.536;19.066;2022-11-14T03:46:32;7.30;;;5.22;;
60582;SDS011;46415;47.536;19.066;2022-11-14T03:49:53;5.75;;;4.78;;
60582;SDS011;46415;47.536;19.066;2022-11-14T03:53:14;17.12;;;5.15;;
60582;SDS011;46415;47.536;19.066;2022-11-14T03:56:35;29.05;;;3.80;;
60582;SDS011;46415;47.536;19.066;2022-11-14T03:59:55;7.90;;;4.60;;
60582;SDS011;46415;47.536;19.066;2022-11-14T04:03:16;5.55;;;4.82;;
60582;SDS011;46415;47.536;19.066;2022-11-14T04:06:37;12.07;;;4.20;;
60582;SDS011;46415;47.536;19.066;2022-11-14T04:09:58;4.05;;;3.70;;
60582;SDS011;46415;47.536;19.066;2022-11-14T04:13:18;4.65;;;4.20;;
60582;SDS011;46415;47.536;19.066;2022-11-14T04:16:39;9.05;;;4.57;;
60582;SDS011;46415;47.536;19.066;2022-11-14T04:20:12;6.50;;;4.47;;
60582;SDS011;46415;47.536;19.066;2022-11-14T04:23:34;22.65;;;5.20;;
60582;SDS011;46415;47.536;19.066;2022-11-14T04:26:55;5.45;;;4.32;;
60582;SDS011;46415;47.536;19.066;2022-11-14T04:30:16;5.53;;;4.95;;
60582;SDS011;46415;47.536;19.066;2022-11-14T04:33:37;7.40;;;4.82;;
60582;SDS011;46415;47.536;19.066;2022-11-14T04:36:58;7.70;;;5.75;;
60582;SDS011;46415;47.536;19.066;2022-11-14T04:40:20;5.25;;;4.25;;
60582;SDS011;46415;47.536;19.066;2022-11-14T04:43:40;6.47;;;4.75;;
60582;SDS011;46415;47.536;19.066;2022-11-14T04:47:07;7.05;;;4.93;;
60582;SDS011;46415;47.536;19.066;2022-11-14T04:50:28;17.23;;;5.28;;
60582;SDS011;46415;47.536;19.066;2022-11-14T04:53:49;5.35;;;4.80;;
60582;SDS011;46415;47.536;19.066;2022-11-14T04:57:10;8.10;;;4.75;;
60582;SDS011;46415;47.536;19.066;2022-11-14T05:00:31;9.43;;;5.03;;
60582;SDS011;46415;47.536;19.066;2022-11-14T05:03:52;6.30;;;4.37;;
60582;SDS011;46415;47.536;19.066;2022-11-14T05:07:13;5.18;;;4.03;;
60582;SDS011;46415;47.536;19.066;2022-11-14T05:10:35;6.82;;;4.43;;
60582;SDS011;46415;47.536;19.066;2022-11-14T05:13:56;11.85;;;4.72;;
60582;SDS011;46415;47.536;19.066;2022-11-14T05:17:17;10.23;;;6.32;;
60582;SDS011;46415;47.536;19.066;2022-11-14T05:20:38;8.45;;;4.97;;
60582;SDS011;46415;47.536;19.066;2022-11-14T05:23:59;32.50;;;5.85;;
60582;SDS011;46415;47.536;19.066;2022-11-14T05:27:20;13.05;;;5.28;;
60582;SDS011;46415;47.536;19.066;2022-11-14T05:30:40;14.15;;;4.60;;
60582;SDS011;46415;47.536;19.066;2022-11-14T05:34:02;11.40;;;5.00;;
60582;SDS011;46415;47.536;19.066;2022-11-14T05:37:23;26.17;;;3.90;;
60582;SDS011;46415;47.536;19.066;2022-11-14T05:40:44;14.77;;;4.75;;
60582;SDS011;46415;47.536;19.066;2022-11-14T05:44:05;5.68;;;5.18;;
60582;SDS011;46415;47.536;19.066;2022-11-14T05:47:26;5.75;;;5.07;;
60582;SDS011;46415;47.536;19.066;2022-11-14T05:50:46;25.77;;;4.53;;
60582;SDS011;46415;47.536;19.066;2022-11-14T05:54:07;7.10;;;5.53;;
60582;SDS011;46415;47.536;19.066;2022-11-14T05:57:29;7.00;;;4.40;;
60582;SDS011;46415;47.536;19.066;2022-11-14T06:00:50;5.07;;;4.62;;
60582;SDS011;46415;47.536;19.066;2022-11-14T06:04:14;7.12;;;5.47;;
60582;SDS011;46415;47.536;19.066;2022-11-14T06:07:34;14.73;;;4.80;;
60582;SDS011;46415;47.536;19.066;2022-11-14T06:11:00;21.65;;;5.25;;
60582;SDS011;46415;47.536;19.066;2022-11-14T06:14:26;4.62;;;4.07;;
60582;SDS011;46415;47.536;19.066;2022-11-14T06:17:47;23.08;;;4.18;;
60582;SDS011;46415;47.536;19.066;2022-11-14T06:21:12;5.60;;;4.35;;
60582;SDS011;46415;47.536;19.066;2022-11-14T06:24:35;24.98;;;4.80;;
60582;SDS011;46415;47.536;19.066;2022-11-14T06:27:57;6.40;;;4.60;;
60582;SDS011;46415;47.536;19.066;2022-11-14T06:31:18;7.40;;;3.58;;
60582;SDS011;46415;47.536;19.066;2022-11-14T06:34:40;37.60;;;5.87;;
60582;SDS011;46415;47.536;19.066;2022-11-14T06:38:01;11.65;;;5.00;;
60582;SDS011;46415;47.536;19.066;2022-11-14T06:41:22;40.00;;;6.00;;
60582;SDS011;46415;47.536;19.066;2022-11-14T06:44:43;6.72;;;5.03;;
60582;SDS011;46415;47.536;19.066;2022-11-14T06:48:04;22.55;;;5.57;;
60582;SDS011;46415;47.536;19.066;2022-11-14T06:51:26;13.23;;;5.75;;
60582;SDS011;46415;47.536;19.066;2022-11-14T06:54:47;26.25;;;7.00;;
60582;SDS011;46415;47.536;19.066;2022-11-14T06:58:10;6.80;;;4.97;;
60582;SDS011;46415;47.536;19.066;2022-11-14T07:01:31;5.95;;;4.82;;
60582;SDS011;46415;47.536;19.066;2022-11-14T07:04:52;7.97;;;6.15;;
60582;SDS011;46415;47.536;19.066;2022-11-14T07:08:13;7.35;;;5.60;;
60582;SDS011;46415;47.536;19.066;2022-11-14T07:11:41;23.87;;;5.72;;
60582;SDS011;46415;47.536;19.066;2022-11-14T07:15:04;5.28;;;4.35;;
60582;SDS011;46415;47.536;19.066;2022-11-14T07:18:26;6.78;;;5.12;;
60582;SDS011;46415;47.536;19.066;2022-11-14T07:21:51;12.37;;;4.12;;
60582;SDS011;46415;47.536;19.066;2022-11-14T07:25:12;4.37;;;3.78;;
60582;SDS011;46415;47.536;19.066;2022-11-14T07:28:34;5.85;;;4.62;;
60582;SDS011;46415;47.536;19.066;2022-11-14T07:31:57;5.25;;;4.20;;
60582;SDS011;46415;47.536;19.066;2022-11-14T07:35:18;9.55;;;4.82;;
60582;SDS011;46415;47.536;19.066;2022-11-14T07:38:39;6.97;;;4.62;;
60582;SDS011;46415;47.536;19.066;2022-11-14T07:42:00;6.30;;;5.18;;
60582;SDS011;46415;47.536;19.066;2022-11-14T07:45:21;6.55;;;4.72;;
60582;SDS011;46415;47.536;19.066;2022-11-14T07:48:43;7.43;;;5.28;;
60582;SDS011;46415;47.536;19.066;2022-11-14T07:52:04;21.27;;;5.30;;
60582;SDS011;46415;47.536;19.066;2022-11-14T07:55:25;11.48;;;5.65;;
60582;SDS011;46415;47.536;19.066;2022-11-14T07:58:46;7.57;;;4.97;;
60582;SDS011;46415;47.536;19.066;2022-11-14T08:02:13;12.35;;;5.70;;
60582;SDS011;46415;47.536;19.066;2022-11-14T08:05:35;8.63;;;5.22;;
60582;SDS011;46415;47.536;19.066;2022-11-14T08:08:56;9.23;;;6.45;;
60582;SDS011;46415;47.536;19.066;2022-11-14T08:12:18;11.82;;;6.70;;
60582;SDS011;46415;47.536;19.066;2022-11-14T08:15:39;12.30;;;8.13;;
60582;SDS011;46415;47.536;19.066;2022-11-14T08:19:00;21.02;;;6.93;;
60582;SDS011;46415;47.536;19.066;2022-11-14T08:22:21;9.57;;;6.30;;
60582;SDS011;46415;47.536;19.066;2022-11-14T08:25:42;8.80;;;6.32;;
60582;SDS011;46415;47.536;19.066;2022-11-14T08:29:03;13.43;;;7.35;;
60582;SDS011;46415;47.536;19.066;2022-11-14T08:32:24;15.32;;;7.62;;
60582;SDS011;46415;47.536;19.066;2022-11-14T08:35:45;13.77;;;8.43;;
60582;SDS011;46415;47.536;19.066;2022-11-14T08:39:06;9.95;;;6.93;;
60582;SDS011;46415;47.536;19.066;2022-11-14T08:42:27;13.88;;;8.63;;
60582;SDS011;46415;47.536;19.066;2022-11-14T08:45:48;15.30;;;7.68;;
60582;SDS011;46415;47.536;19.066;2022-11-14T08:49:09;9.80;;;6.25;;
60582;SDS011;46415;47.536;19.066;2022-11-14T08:52:33;11.57;;;7.10;;
60582;SDS011;46415;47.536;19.066;2022-11-14T08:55:54;10.52;;;6.82;;
60582;SDS011;46415;47.536;19.066;2022-11-14T08:59:15;11.38;;;7.90;;
60582;SDS011;46415;47.536;19.066;2022-11-14T09:02:36;12.73;;;7.45;;
60582;SDS011;46415;47.536;19.066;2022-11-14T09:05:57;11.93;;;8.23;;
60582;SDS011;46415;47.536;19.066;2022-11-14T09:09:18;11.60;;;7.22;;
60582;SDS011;46415;47.536;19.066;2022-11-14T09:12:40;15.40;;;7.68;;
60582;SDS011;46415;47.536;19.066;2022-11-14T09:16:01;15.65;;;8.55;;
60582;SDS011;46415;47.536;19.066;2022-11-14T09:19:22;20.15;;;9.25;;
60582;SDS011;46415;47.536;19.066;2022-11-14T09:22:43;18.30;;;10.18;;
60582;SDS011;46415;47.536;19.066;2022-11-14T09:26:04;16.05;;;10.23;;
60582;SDS011;46415;47.536;19.066;2022-11-14T09:29:27;14.95;;;8.50;;
60582;SDS011;46415;47.536;19.066;2022-11-14T09:32:48;15.65;;;8.70;;
60582;SDS011;46415;47.536;19.066;2022-11-14T09:36:10;17.40;;;8.80;;
60582;SDS011;46415;47.536;19.066;2022-11-14T09:39:35;20.83;;;10.27;;
60582;SDS011;46415;47.536;19.066;2022-11-14T09:47:09;17.50;;;10.25;;
60582;SDS011;46415;47.536;19.066;2022-11-14T09:50:43;13.18;;;7.95;;
60582;SDS011;46415;47.536;19.066;2022-11-14T09:54:18;15.32;;;9.02;;
60582;SDS011;46415;47.536;19.066;2022-11-14T09:57:43;12.57;;;8.70;;
60582;SDS011;46415;47.536;19.066;2022-11-14T10:01:05;18.92;;;10.38;;
60582;SDS011;46415;47.536;19.066;2022-11-14T10:08:02;18.65;;;11.45;;
60582;SDS011;46415;47.536;19.066;2022-11-14T10:11:39;17.12;;;9.85;;
60582;SDS011;46415;47.536;19.066;2022-11-14T10:33:10;20.70;;;11.00;;
60582;SDS011;46415;47.536;19.066;2022-11-14T10:36:46;17.00;;;10.23;;
60582;SDS011;46415;47.536;19.066;2022-11-14T10:40:28;17.67;;;10.60;;
60582;SDS011;46415;47.536;19.066;2022-11-14T10:43:57;21.12;;;11.00;;
60582;SDS011;46415;47.536;19.066;2022-11-14T10:47:19;19.58;;;10.25;;
60582;SDS011;46415;47.536;19.066;2022-11-14T10:50:47;18.17;;;10.88;;
60582;SDS011;46415;47.536;19.066;2022-11-14T10:58:09;16.05;;;10.52;;
60582;SDS011;46415;47.536;19.066;2022-11-14T11:05:14;20.15;;;10.32;;
60582;SDS011;46415;47.536;19.066;2022-11-14T11:08:45;20.88;;;12.18;;
60582;SDS011;46415;47.536;19.066;2022-11-14T11:12:39;16.70;;;10.63;;
60582;SDS011;46415;47.536;19.066;2022-11-14T11:16:08;15.18;;;10.32;;
60582;SDS011;46415;47.536;19.066;2022-11-14T11:19:31;19.87;;;12.95;;
60582;SDS011;46415;47.536;19.066;2022-11-14T11:23:01;27.95;;;16.65;;
60582;SDS011;46415;47.536;19.066;2022-11-14T11:26:23;19.50;;;11.43;;
60582;SDS011;46415;47.536;19.066;2022-11-14T11:33:26;18.42;;;11.57;;
60582;SDS011;46415;47.536;19.066;2022-11-14T11:36:49;21.00;;;14.43;;
60582;SDS011;46415;47.536;19.066;2022-11-14T11:40:42;17.87;;;11.35;;
60582;SDS011;46415;47.536;19.066;2022-11-14T11:44:06;17.98;;;11.43;;
60582;SDS011;46415;47.536;19.066;2022-11-14T11:47:34;18.62;;;12.82;;
60582;SDS011;46415;47.536;19.066;2022-11-14T11:50:58;22.60;;;16.27;;
60582;SDS011;46415;47.536;19.066;2022-11-14T11:54:26;22.02;;;15.38;;
60582;SDS011;46415;47.536;19.066;2022-11-14T11:57:52;20.55;;;14.45;;
60582;SDS011;46415;47.536;19.066;2022-11-14T12:01:22;23.33;;;15.20;;
60582;SDS011;46415;47.536;19.066;2022-11-14T12:04:43;20.60;;;13.20;;
60582;SDS011;46415;47.536;19.066;2022-11-14T12:08:07;19.42;;;12.35;;
60582;SDS011;46415;47.536;19.066;2022-11-14T12:11:53;24.17;;;17.48;;
60582;SDS011;46415;47.536;19.066;2022-11-14T12:19:21;20.42;;;13.05;;
60582;SDS011;46415;47.536;19.066;2022-11-14T12:23:19;20.37;;;13.52;;
60582;SDS011;46415;47.536;19.066;2022-11-14T12:30:13;19.37;;;12.85;;
60582;SDS011;46415;47.536;19.066;2022-11-14T12:33:38;20.62;;;14.38;;
60582;SDS011;46415;47.536;19.066;2022-11-14T12:40:39;25.05;;;16.92;;
60582;SDS011;46415;47.536;19.066;2022-11-14T12:48:21;23.98;;;17.98;;
60582;SDS011;46415;47.536;19.066;2022-11-14T12:51:55;19.67;;;12.43;;
60582;SDS011;46415;47.536;19.066;2022-11-14T13:02:21;23.77;;;17.33;;
60582;SDS011;46415;47.536;19.066;2022-11-14T13:06:00;25.15;;;16.52;;
60582;SDS011;46415;47.536;19.066;2022-11-14T13:09:32;21.70;;;16.10;;
60582;SDS011;46415;47.536;19.066;2022-11-14T13:16:49;22.80;;;16.08;;
60582;SDS011;46415;47.536;19.066;2022-11-14T13:20:30;23.38;;;16.20;;
60582;SDS011;46415;47.536;19.066;2022-11-14T13:24:14;20.55;;;15.30;;
60582;SDS011;46415;47.536;19.066;2022-11-14T13:27:37;23.45;;;14.82;;
60582;SDS011;46415;47.536;19.066;2022-11-14T13:31:19;21.83;;;14.87;;
60582;SDS011;46415;47.536;19.066;2022-11-14T13:38:24;22.10;;;15.15;;
60582;SDS011;46415;47.536;19.066;2022-11-14T13:45:44;21.75;;;14.93;;
60582;SDS011;46415;47.536;19.066;2022-11-14T13:52:44;18.30;;;13.02;;
60582;SDS011;46415;47.536;19.066;2022-11-14T13:56:12;14.18;;;10.45;;
60582;SDS011;46415;47.536;19.066;2022-11-14T14:10:34;12.37;;;8.85;;
60582;SDS011;46415;47.536;19.066;2022-11-14T14:17:46;14.25;;;9.15;;
60582;SDS011;46415;47.536;19.066;2022-11-14T14:28:42;13.68;;;9.57;;
60582;SDS011;46415;47.536;19.066;2022-11-14T14:32:26;11.75;;;8.98;;
60582;SDS011;46415;47.536;19.066;2022-11-14T14:35:50;12.10;;;8.68;;
60582;SDS011;46415;47.536;19.066;2022-11-14T14:42:45;14.65;;;9.88;;
60582;SDS011;46415;47.536;19.066;2022-11-14T14:46:06;14.07;;;9.35;;
60582;SDS011;46415;47.536;19.066;2022-11-14T14:49:31;13.80;;;9.25;;
60582;SDS011;46415;47.536;19.066;2022-11-14T14:52:57;14.38;;;9.02;;
60582;SDS011;46415;47.536;19.066;2022-11-14T14:56:22;15.00;;;9.68;;
60582;SDS011;46415;47.536;19.066;2022-11-14T14:59:46;13.00;;;8.80;;
60582;SDS011;46415;47.536;19.066;2022-11-14T15:03:19;18.40;;;10.45;;
60582;SDS011;46415;47.536;19.066;2022-11-14T15:06:44;10.38;;;6.20;;
60582;SDS011;46415;47.536;19.066;2022-11-14T15:10:06;15.95;;;8.63;;
60582;SDS011;46415;47.536;19.066;2022-11-14T15:13:28;14.98;;;8.35;;
60582;SDS011;46415;47.536;19.066;2022-11-14T15:16:50;12.52;;;7.60;;
60582;SDS011;46415;47.536;19.066;2022-11-14T15:20:25;12.25;;;8.73;;
60582;SDS011;46415;47.536;19.066;2022-11-14T15:23:57;11.17;;;7.27;;
60582;SDS011;46415;47.536;19.066;2022-11-14T15:27:50;10.32;;;7.55;;
60582;SDS011;46415;47.536;19.066;2022-11-14T15:31:19;8.95;;;6.15;;
60582;SDS011;46415;47.536;19.066;2022-11-14T15:34:42;12.07;;;7.57;;
60582;SDS011;46415;47.536;19.066;2022-11-14T15:41:45;12.50;;;7.62;;
60582;SDS011;46415;47.536;19.066;2022-11-14T15:45:21;9.85;;;6.72;;
60582;SDS011;46415;47.536;19.066;2022-11-14T15:48:47;8.05;;;6.70;;
60582;SDS011;46415;47.536;19.066;2022-11-14T15:52:16;11.65;;;7.03;;
60582;SDS011;46415;47.536;19.066;2022-11-14T15:55:40;12.35;;;6.85;;
60582;SDS011;46415;47.536;19.066;2022-11-14T15:59:00;13.23;;;8.25;;
60582;SDS011;46415;47.536;19.066;2022-11-14T16:02:26;12.73;;;7.87;;
60582;SDS011;46415;47.536;19.066;2022-11-14T16:05:50;13.07;;;7.78;;
60582;SDS011;46415;47.536;19.066;2022-11-14T16:09:17;11.75;;;7.82;;
60582;SDS011;46415;47.536;19.066;2022-11-14T16:12:39;9.60;;;6.20;;
60582;SDS011;46415;47.536;19.066;2022-11-14T16:16:00;11.65;;;7.40;;
60582;SDS011;46415;47.536;19.066;2022-11-14T16:19:21;10.50;;;7.05;;
60582;SDS011;46415;47.536;19.066;2022-11-14T16:22:43;10.45;;;7.55;;
60582;SDS011;46415;47.536;19.066;2022-11-14T16:26:05;14.52;;;7.95;;
60582;SDS011;46415;47.536;19.066;2022-11-14T16:29:26;15.02;;;8.45;;
60582;SDS011;46415;47.536;19.066;2022-11-14T16:32:48;16.25;;;8.93;;
60582;SDS011;46415;47.536;19.066;2022-11-14T16:36:10;16.95;;;8.13;;
60582;SDS011;46415;47.536;19.066;2022-11-14T16:39:32;12.27;;;7.90;;
60582;SDS011;46415;47.536;19.066;2022-11-14T16:42:53;12.68;;;8.07;;
60582;SDS011;46415;47.536;19.066;2022-11-14T16:46:15;14.43;;;8.63;;
60582;SDS011;46415;47.536;19.066;2022-11-14T16:49:36;15.65;;;8.70;;
60582;SDS011;46415;47.536;19.066;2022-11-14T16:52:57;16.27;;;8.65;;
60582;SDS011;46415;47.536;19.066;2022-11-14T16:56:18;15.45;;;9.25;;
60582;SDS011;46415;47.536;19.066;2022-11-14T16:59:39;15.95;;;9.48;;
60582;SDS011;46415;47.536;19.066;2022-11-14T17:03:00;15.52;;;9.05;;
60582;SDS011;46415;47.536;19.066;2022-11-14T17:06:21;14.45;;;8.60;;
60582;SDS011;46415;47.536;19.066;2022-11-14T17:09:42;14.80;;;9.60;;
60582;SDS011;46415;47.536;19.066;2022-11-14T17:13:03;16.00;;;8.35;;
60582;SDS011;46415;47.536;19.066;2022-11-14T17:16:24;15.48;;;10.07;;
60582;SDS011;46415;47.536;19.066;2022-11-14T17:19:45;17.90;;;9.77;;
60582;SDS011;46415;47.536;19.066;2022-11-14T17:23:06;15.13;;;9.02;;
60582;SDS011;46415;47.536;19.066;2022-11-14T17:26:28;17.05;;;9.85;;
60582;SDS011;46415;47.536;19.066;2022-11-14T17:29:49;14.23;;;9.40;;
60582;SDS011;46415;47.536;19.066;2022-11-14T17:33:12;20.25;;;10.63;;
60582;SDS011;46415;47.536;19.066;2022-11-14T17:36:33;12.65;;;8.50;;
60582;SDS011;46415;47.536;19.066;2022-11-14T17:39:54;15.27;;;9.23;;
60582;SDS011;46415;47.536;19.066;2022-11-14T17:43:15;16.45;;;9.50;;
60582;SDS011;46415;47.536;19.066;2022-11-14T17:46:36;20.23;;;10.35;;
60582;SDS011;46415;47.536;19.066;2022-11-14T17:49:57;15.45;;;10.18;;
60582;SDS011;46415;47.536;19.066;2022-11-14T17:53:18;17.55;;;10.95;;
60582;SDS011;46415;47.536;19.066;2022-11-14T17:56:40;16.80;;;9.65;;
60582;SDS011;46415;47.536;19.066;2022-11-14T18:00:09;15.30;;;9.30;;
60582;SDS011;46415;47.536;19.066;2022-11-14T18:03:30;17.90;;;10.88;;
60582;SDS011;46415;47.536;19.066;2022-11-14T18:06:51;22.17;;;9.80;;
60582;SDS011;46415;47.536;19.066;2022-11-14T18:10:13;19.05;;;11.23;;
60582;SDS011;46415;47.536;19.066;2022-11-14T18:13:34;20.50;;;10.65;;
60582;SDS011;46415;47.536;19.066;2022-11-14T18:16:56;14.27;;;9.68;;
60582;SDS011;46415;47.536;19.066;2022-11-14T18:20:32;16.55;;;10.13;;
60582;SDS011;46415;47.536;19.066;2022-11-14T18:23:57;16.23;;;9.50;;
60582;SDS011;46415;47.536;19.066;2022-11-14T18:27:20;18.05;;;9.63;;
60582;SDS011;46415;47.536;19.066;2022-11-14T18:30:41;18.30;;;10.20;;
60582;SDS011;46415;47.536;19.066;2022-11-14T18:34:02;22.83;;;10.63;;
60582;SDS011;46415;47.536;19.066;2022-11-14T18:37:23;18.45;;;10.55;;
60582;SDS011;46415;47.536;19.066;2022-11-14T18:40:46;18.98;;;10.82;;
60582;SDS011;46415;47.536;19.066;2022-11-14T18:44:12;21.23;;;10.50;;
60582;SDS011;46415;47.536;19.066;2022-11-14T18:47:33;21.40;;;12.40;;
60582;SDS011;46415;47.536;19.066;2022-11-14T18:50:59;23.33;;;11.98;;
60582;SDS011;46415;47.536;19.066;2022-11-14T18:54:23;15.93;;;10.88;;
60582;SDS011;46415;47.536;19.066;2022-11-14T18:57:44;20.90;;;12.57;;
60582;SDS011;46415;47.536;19.066;2022-11-14T19:01:12;23.98;;;11.10;;
60582;SDS011;46415;47.536;19.066;2022-11-14T19:04:38;17.95;;;10.82;;
60582;SDS011;46415;47.536;19.066;2022-11-14T19:07:59;19.05;;;10.60;;
60582;SDS011;46415;47.536;19.066;2022-11-14T19:11:20;24.75;;;11.18;;
60582;SDS011;46415;47.536;19.066;2022-11-14T19:15:00;14.90;;;9.73;;
60582;SDS011;46415;47.536;19.066;2022-11-14T19:18:21;22.52;;;11.68;;
60582;SDS011;46415;47.536;19.066;2022-11-14T19:21:43;16.08;;;10.40;;
60582;SDS011;46415;47.536;19.066;2022-11-14T19:25:03;18.48;;;10.52;;
60582;SDS011;46415;47.536;19.066;2022-11-14T19:28:25;18.80;;;11.55;;
60582;SDS011;46415;47.536;19.066;2022-11-14T19:31:48;29.35;;;12.98;;
60582;SDS011;46415;47.536;19.066;2022-11-14T19:35:09;15.63;;;11.85;;
60582;SDS011;46415;47.536;19.066;2022-11-14T19:38:36;19.05;;;10.38;;
60582;SDS011;46415;47.536;19.066;2022-11-14T19:41:58;18.25;;;10.68;;
60582;SDS011;46415;47.536;19.066;2022-11-14T19:45:19;15.10;;;10.55;;
60582;SDS011;46415;47.536;19.066;2022-11-14T19:48:40;23.15;;;10.85;;
60582;SDS011;46415;47.536;19.066;2022-11-14T19:52:01;20.33;;;11.77;;
60582;SDS011;46415;47.536;19.066;2022-11-14T19:55:22;27.42;;;14.38;;
60582;SDS011;46415;47.536;19.066;2022-11-14T19:58:44;17.52;;;12.23;;
60582;SDS011;46415;47.536;19.066;2022-11-14T20:02:09;24.17;;;14.18;;
60582;SDS011;46415;47.536;19.066;2022-11-14T20:05:34;21.23;;;13.95;;
60582;SDS011;46415;47.536;19.066;2022-11-14T20:08:56;22.42;;;13.07;;
60582;SDS011;46415;47.536;19.066;2022-11-14T20:12:17;22.37;;;12.80;;
60582;SDS011;46415;47.536;19.066;2022-11-14T20:15:39;23.65;;;15.52;;
60582;SDS011;46415;47.536;19.066;2022-11-14T20:19:00;19.37;;;13.20;;
60582;SDS011;46415;47.536;19.066;2022-11-14T20:22:21;26.90;;;14.25;;
60582;SDS011;46415;47.536;19.066;2022-11-14T20:25:42;20.12;;;12.75;;
60582;SDS011;46415;47.536;19.066;2022-11-14T20:29:02;39.58;;;13.40;;
60582;SDS011;46415;47.536;19.066;2022-11-14T20:32:26;22.25;;;12.20;;
60582;SDS011;46415;47.536;19.066;2022-11-14T20:35:55;18.05;;;12.25;;
60582;SDS011;46415;47.536;19.066;2022-11-14T20:39:21;17.27;;;11.20;;
60582;SDS011;46415;47.536;19.066;2022-11-14T20:42:45;21.12;;;12.98;;
60582;SDS011;46415;47.536;19.066;2022-11-14T20:46:11;20.10;;;12.32;;
60582;SDS011;46415;47.536;19.066;2022-11-14T20:49:36;18.23;;;12.65;;
60582;SDS011;46415;47.536;19.066;2022-11-14T20:52:58;23.02;;;11.50;;
60582;SDS011;46415;47.536;19.066;2022-11-14T20:56:19;20.23;;;10.52;;
60582;SDS011;46415;47.536;19.066;2022-11-14T20:59:41;38.17;;;11.07;;
60582;SDS011;46415;47.536;19.066;2022-11-14T21:03:03;34.33;;;10.57;;
60582;SDS011;46415;47.536;19.066;2022-11-14T21:06:24;20.88;;;10.05;;
60582;SDS011;46415;47.536;19.066;2022-11-14T21:09:45;19.70;;;10.65;;
60582;SDS011;46415;47.536;19.066;2022-11-14T21:13:06;15.38;;;9.82;;
60582;SDS011;46415;47.536;19.066;2022-11-14T21:16:46;57.25;;;9.82;;
60582;SDS011;46415;47.536;19.066;2022-11-14T21:20:07;22.30;;;11.23;;
60582;SDS011;46415;47.536;19.066;2022-11-14T21:23:29;17.10;;;10.05;;
60582;SDS011;46415;47.536;19.066;2022-11-14T21:26:50;14.55;;;9.15;;
60582;SDS011;46415;47.536;19.066;2022-11-14T21:30:11;12.70;;;8.05;;
60582;SDS011;46415;47.536;19.066;2022-11-14T21:33:33;20.58;;;9.27;;
60582;SDS011;46415;47.536;19.066;2022-11-14T21:36:54;19.40;;;10.38;;